Terminal Aerodrome Forecast
Issued by NWS

Home | Current Version | Previous Version | Text Only | Print | Product List | Glossary On
Versions: 1 2 3 4 5 6 7 8 9 10 11 12 13 14 15 16 17 18
000
FTUS43 KEAX 062300 CCA
TAFMKC
TAF COR
KMKC 062345Z 0700/0724 15014KT P6SM SCT080
     FM070900 17015G25KT P6SM -SHRA OVC050
     FM071500 20013G25KT P6SM VCSH BKN080=

USA.gov is the U.S. government's official web portal to all federal, state and local government web resources and services.